sensor_id;sensor_type;location;lat;lon;timestamp;P1;durP1;ratioP1;P2;durP2;ratioP2
9924;SDS011;5001;51.674;7.868;2022-09-13T00:01:35;9.47;;;6.57;;
9924;SDS011;5001;51.674;7.868;2022-09-13T00:04:02;8.03;;;6.43;;
9924;SDS011;5001;51.674;7.868;2022-09-13T00:06:29;8.63;;;6.03;;
9924;SDS011;5001;51.674;7.868;2022-09-13T00:08:56;7.50;;;5.93;;
9924;SDS011;5001;51.674;7.868;2022-09-13T00:11:24;7.30;;;6.15;;
9924;SDS011;5001;51.674;7.868;2022-09-13T00:13:53;7.72;;;5.82;;
9924;SDS011;5001;51.674;7.868;2022-09-13T00:16:22;7.73;;;5.30;;
9924;SDS011;5001;51.674;7.868;2022-09-13T00:18:51;5.93;;;5.32;;
9924;SDS011;5001;51.674;7.868;2022-09-13T00:21:19;10.43;;;6.33;;
9924;SDS011;5001;51.674;7.868;2022-09-13T00:23:49;6.50;;;5.90;;
9924;SDS011;5001;51.674;7.868;2022-09-13T00:26:21;8.60;;;6.40;;
9924;SDS011;5001;51.674;7.868;2022-09-13T00:28:54;6.30;;;5.75;;
9924;SDS011;5001;51.674;7.868;2022-09-13T00:31:23;6.18;;;5.57;;
9924;SDS011;5001;51.674;7.868;2022-09-13T00:33:52;8.85;;;6.15;;
9924;SDS011;5001;51.674;7.868;2022-09-13T00:36:20;9.13;;;6.20;;
9924;SDS011;5001;51.674;7.868;2022-09-13T00:38:47;9.43;;;6.32;;
9924;SDS011;5001;51.674;7.868;2022-09-13T00:41:14;6.03;;;5.43;;
9924;SDS011;5001;51.674;7.868;2022-09-13T00:43:45;6.07;;;5.47;;
9924;SDS011;5001;51.674;7.868;2022-09-13T00:48:58;7.78;;;5.13;;
9924;SDS011;5001;51.674;7.868;2022-09-13T00:51:35;5.85;;;5.25;;
9924;SDS011;5001;51.674;7.868;2022-09-13T00:54:02;11.55;;;7.78;;
9924;SDS011;5001;51.674;7.868;2022-09-13T00:56:32;6.78;;;5.55;;
9924;SDS011;5001;51.674;7.868;2022-09-13T00:59:06;9.27;;;8.18;;
9924;SDS011;5001;51.674;7.868;2022-09-13T01:01:43;13.05;;;11.70;;
9924;SDS011;5001;51.674;7.868;2022-09-13T01:04:17;13.70;;;11.95;;
9924;SDS011;5001;51.674;7.868;2022-09-13T01:06:46;11.23;;;9.60;;
9924;SDS011;5001;51.674;7.868;2022-09-13T01:09:14;11.23;;;10.05;;
9924;SDS011;5001;51.674;7.868;2022-09-13T01:11:48;11.95;;;10.80;;
9924;SDS011;5001;51.674;7.868;2022-09-13T01:14:21;8.65;;;6.97;;
9924;SDS011;5001;51.674;7.868;2022-09-13T01:16:49;13.43;;;12.10;;
9924;SDS011;5001;51.674;7.868;2022-09-13T01:19:17;10.95;;;9.85;;
9924;SDS011;5001;51.674;7.868;2022-09-13T01:28:44;12.82;;;9.63;;
9924;SDS011;5001;51.674;7.868;2022-09-13T01:36:35;10.35;;;9.27;;
9924;SDS011;5001;51.674;7.868;2022-09-13T01:42:19;10.45;;;9.45;;
9924;SDS011;5001;51.674;7.868;2022-09-13T01:48:00;9.35;;;7.53;;
9924;SDS011;5001;51.674;7.868;2022-09-13T01:50:38;7.57;;;6.88;;
9924;SDS011;5001;51.674;7.868;2022-09-13T01:53:22;6.47;;;5.85;;
9924;SDS011;5001;51.674;7.868;2022-09-13T01:56:08;7.53;;;6.78;;
9924;SDS011;5001;51.674;7.868;2022-09-13T01:59:01;6.35;;;5.75;;
9924;SDS011;5001;51.674;7.868;2022-09-13T02:01:43;6.47;;;5.75;;
9924;SDS011;5001;51.674;7.868;2022-09-13T02:04:22;6.00;;;5.40;;
9924;SDS011;5001;51.674;7.868;2022-09-13T02:06:57;6.45;;;5.72;;
9924;SDS011;5001;51.674;7.868;2022-09-13T02:09:29;6.00;;;5.40;;
9924;SDS011;5001;51.674;7.868;2022-09-13T02:12:04;6.60;;;5.43;;
9924;SDS011;5001;51.674;7.868;2022-09-13T02:14:37;6.22;;;5.55;;
9924;SDS011;5001;51.674;7.868;2022-09-13T02:17:06;6.10;;;5.50;;
9924;SDS011;5001;51.674;7.868;2022-09-13T02:19:47;7.22;;;6.10;;
9924;SDS011;5001;51.674;7.868;2022-09-13T02:22:33;7.43;;;6.18;;
9924;SDS011;5001;51.674;7.868;2022-09-13T02:25:06;5.95;;;5.32;;
9924;SDS011;5001;51.674;7.868;2022-09-13T02:27:37;6.82;;;5.97;;
9924;SDS011;5001;51.674;7.868;2022-09-13T02:30:07;9.50;;;5.85;;
9924;SDS011;5001;51.674;7.868;2022-09-13T02:32:44;6.25;;;5.05;;
9924;SDS011;5001;51.674;7.868;2022-09-13T02:35:26;7.75;;;5.85;;
9924;SDS011;5001;51.674;7.868;2022-09-13T02:38:04;6.57;;;5.93;;
9924;SDS011;5001;51.674;7.868;2022-09-13T02:40:38;8.05;;;5.45;;
9924;SDS011;5001;51.674;7.868;2022-09-13T02:43:30;6.32;;;5.35;;
9924;SDS011;5001;51.674;7.868;2022-09-13T02:46:14;6.38;;;5.75;;
9924;SDS011;5001;51.674;7.868;2022-09-13T02:49:20;6.50;;;5.78;;
9924;SDS011;5001;51.674;7.868;2022-09-13T02:54:37;5.75;;;5.25;;
9924;SDS011;5001;51.674;7.868;2022-09-13T02:57:16;7.13;;;5.53;;
9924;SDS011;5001;51.674;7.868;2022-09-13T02:59:50;8.27;;;5.13;;
9924;SDS011;5001;51.674;7.868;2022-09-13T03:02:18;5.90;;;5.40;;
9924;SDS011;5001;51.674;7.868;2022-09-13T03:04:50;6.10;;;5.50;;
9924;SDS011;5001;51.674;7.868;2022-09-13T03:07:18;6.53;;;5.40;;
9924;SDS011;5001;51.674;7.868;2022-09-13T03:09:46;8.63;;;5.60;;
9924;SDS011;5001;51.674;7.868;2022-09-13T03:15:28;7.97;;;6.18;;
9924;SDS011;5001;51.674;7.868;2022-09-13T03:18:09;6.35;;;5.75;;
9924;SDS011;5001;51.674;7.868;2022-09-13T03:27:21;7.38;;;5.53;;
9924;SDS011;5001;51.674;7.868;2022-09-13T03:38:18;6.70;;;6.03;;
9924;SDS011;5001;51.674;7.868;2022-09-13T03:41:04;7.28;;;5.75;;
9924;SDS011;5001;51.674;7.868;2022-09-13T03:46:17;10.18;;;6.57;;
9924;SDS011;5001;51.674;7.868;2022-09-13T03:49:05;6.55;;;5.88;;
9924;SDS011;5001;51.674;7.868;2022-09-13T03:51:35;10.50;;;5.53;;
9924;SDS011;5001;51.674;7.868;2022-09-13T03:54:04;7.20;;;5.85;;
9924;SDS011;5001;51.674;7.868;2022-09-13T03:56:34;7.25;;;5.82;;
9924;SDS011;5001;51.674;7.868;2022-09-13T03:59:01;6.72;;;4.78;;
9924;SDS011;5001;51.674;7.868;2022-09-13T04:01:28;6.05;;;5.35;;
9924;SDS011;5001;51.674;7.868;2022-09-13T04:03:56;6.82;;;4.65;;
9924;SDS011;5001;51.674;7.868;2022-09-13T04:06:24;6.32;;;4.50;;
9924;SDS011;5001;51.674;7.868;2022-09-13T04:08:51;5.65;;;4.47;;
9924;SDS011;5001;51.674;7.868;2022-09-13T04:11:18;7.28;;;4.38;;
9924;SDS011;5001;51.674;7.868;2022-09-13T04:13:46;4.57;;;4.18;;
9924;SDS011;5001;51.674;7.868;2022-09-13T04:16:13;7.80;;;4.18;;
9924;SDS011;5001;51.674;7.868;2022-09-13T04:18:40;4.55;;;3.33;;
9924;SDS011;5001;51.674;7.868;2022-09-13T04:21:07;4.00;;;3.60;;
9924;SDS011;5001;51.674;7.868;2022-09-13T04:23:34;4.20;;;3.80;;
9924;SDS011;5001;51.674;7.868;2022-09-13T04:26:02;4.05;;;3.63;;
9924;SDS011;5001;51.674;7.868;2022-09-13T04:28:30;3.80;;;3.20;;
9924;SDS011;5001;51.674;7.868;2022-09-13T04:30:57;3.72;;;3.15;;
9924;SDS011;5001;51.674;7.868;2022-09-13T04:33:24;4.43;;;3.30;;
9924;SDS011;5001;51.674;7.868;2022-09-13T04:35:57;3.92;;;3.17;;
9924;SDS011;5001;51.674;7.868;2022-09-13T04:38:25;4.22;;;3.83;;
9924;SDS011;5001;51.674;7.868;2022-09-13T04:40:53;6.07;;;3.85;;
9924;SDS011;5001;51.674;7.868;2022-09-13T04:43:21;3.50;;;3.20;;
9924;SDS011;5001;51.674;7.868;2022-09-13T04:45:48;4.55;;;3.30;;
9924;SDS011;5001;51.674;7.868;2022-09-13T04:48:16;5.65;;;3.28;;
9924;SDS011;5001;51.674;7.868;2022-09-13T04:50:43;4.97;;;3.08;;
9924;SDS011;5001;51.674;7.868;2022-09-13T04:53:10;3.67;;;3.00;;
9924;SDS011;5001;51.674;7.868;2022-09-13T04:55:37;3.55;;;3.25;;
9924;SDS011;5001;51.674;7.868;2022-09-13T04:58:04;4.85;;;3.13;;
9924;SDS011;5001;51.674;7.868;2022-09-13T05:00:31;7.47;;;2.92;;
9924;SDS011;5001;51.674;7.868;2022-09-13T05:02:58;3.28;;;2.97;;
9924;SDS011;5001;51.674;7.868;2022-09-13T05:05:25;3.17;;;2.58;;
9924;SDS011;5001;51.674;7.868;2022-09-13T05:07:54;4.32;;;3.20;;
9924;SDS011;5001;51.674;7.868;2022-09-13T05:10:21;2.90;;;2.63;;
9924;SDS011;5001;51.674;7.868;2022-09-13T05:12:48;4.80;;;2.65;;
9924;SDS011;5001;51.674;7.868;2022-09-13T05:15:15;5.60;;;4.30;;
9924;SDS011;5001;51.674;7.868;2022-09-13T05:17:42;3.55;;;2.95;;
9924;SDS011;5001;51.674;7.868;2022-09-13T05:20:09;4.90;;;3.25;;
9924;SDS011;5001;51.674;7.868;2022-09-13T05:22:36;6.70;;;3.55;;
9924;SDS011;5001;51.674;7.868;2022-09-13T05:25:04;6.65;;;3.03;;
9924;SDS011;5001;51.674;7.868;2022-09-13T05:27:31;4.15;;;3.35;;
9924;SDS011;5001;51.674;7.868;2022-09-13T05:29:58;4.13;;;3.65;;
9924;SDS011;5001;51.674;7.868;2022-09-13T05:32:25;5.88;;;3.70;;
9924;SDS011;5001;51.674;7.868;2022-09-13T05:34:53;8.25;;;3.70;;
9924;SDS011;5001;51.674;7.868;2022-09-13T05:37:19;4.80;;;3.30;;
9924;SDS011;5001;51.674;7.868;2022-09-13T05:39:47;9.32;;;4.38;;
9924;SDS011;5001;51.674;7.868;2022-09-13T05:42:33;7.00;;;4.40;;
9924;SDS011;5001;51.674;7.868;2022-09-13T05:45:01;6.10;;;3.83;;
9924;SDS011;5001;51.674;7.868;2022-09-13T05:47:27;9.82;;;4.47;;
9924;SDS011;5001;51.674;7.868;2022-09-13T05:49:54;7.32;;;4.28;;
9924;SDS011;5001;51.674;7.868;2022-09-13T05:52:36;7.55;;;4.60;;
9924;SDS011;5001;51.674;7.868;2022-09-13T05:55:03;7.07;;;4.28;;
9924;SDS011;5001;51.674;7.868;2022-09-13T05:57:30;10.32;;;4.45;;
9924;SDS011;5001;51.674;7.868;2022-09-13T05:59:57;6.80;;;4.95;;
9924;SDS011;5001;51.674;7.868;2022-09-13T06:02:24;14.35;;;4.93;;
9924;SDS011;5001;51.674;7.868;2022-09-13T06:04:51;10.35;;;5.32;;
9924;SDS011;5001;51.674;7.868;2022-09-13T06:07:18;12.07;;;5.50;;
9924;SDS011;5001;51.674;7.868;2022-09-13T06:09:45;9.13;;;4.78;;
9924;SDS011;5001;51.674;7.868;2022-09-13T06:12:11;11.63;;;5.10;;
9924;SDS011;5001;51.674;7.868;2022-09-13T06:14:38;8.38;;;4.65;;
9924;SDS011;5001;51.674;7.868;2022-09-13T06:17:05;9.52;;;5.47;;
9924;SDS011;5001;51.674;7.868;2022-09-13T06:19:32;11.00;;;5.07;;
9924;SDS011;5001;51.674;7.868;2022-09-13T06:21:59;14.13;;;5.53;;
9924;SDS011;5001;51.674;7.868;2022-09-13T06:24:26;14.23;;;5.75;;
9924;SDS011;5001;51.674;7.868;2022-09-13T06:26:53;11.82;;;5.97;;
9924;SDS011;5001;51.674;7.868;2022-09-13T06:29:20;14.93;;;9.13;;
9924;SDS011;5001;51.674;7.868;2022-09-13T06:31:47;13.35;;;8.95;;
9924;SDS011;5001;51.674;7.868;2022-09-13T06:34:14;12.18;;;10.15;;
9924;SDS011;5001;51.674;7.868;2022-09-13T06:36:42;15.18;;;10.95;;
9924;SDS011;5001;51.674;7.868;2022-09-13T06:39:09;12.13;;;9.35;;
9924;SDS011;5001;51.674;7.868;2022-09-13T06:41:36;6.63;;;4.88;;
9924;SDS011;5001;51.674;7.868;2022-09-13T06:44:03;11.23;;;8.30;;
9924;SDS011;5001;51.674;7.868;2022-09-13T06:46:31;5.93;;;4.90;;
9924;SDS011;5001;51.674;7.868;2022-09-13T06:49:04;9.75;;;6.47;;
9924;SDS011;5001;51.674;7.868;2022-09-13T06:51:32;8.65;;;5.30;;
9924;SDS011;5001;51.674;7.868;2022-09-13T06:54:00;7.95;;;4.70;;
9924;SDS011;5001;51.674;7.868;2022-09-13T06:56:30;7.38;;;4.32;;
9924;SDS011;5001;51.674;7.868;2022-09-13T06:59:00;6.63;;;4.03;;
9924;SDS011;5001;51.674;7.868;2022-09-13T07:01:34;5.38;;;3.85;;
9924;SDS011;5001;51.674;7.868;2022-09-13T07:04:04;9.25;;;3.88;;
9924;SDS011;5001;51.674;7.868;2022-09-13T07:06:33;4.63;;;3.45;;
9924;SDS011;5001;51.674;7.868;2022-09-13T07:09:03;11.05;;;4.28;;
9924;SDS011;5001;51.674;7.868;2022-09-13T07:11:34;4.88;;;3.80;;
9924;SDS011;5001;51.674;7.868;2022-09-13T07:14:03;3.63;;;2.78;;
9924;SDS011;5001;51.674;7.868;2022-09-13T07:16:35;8.70;;;3.28;;
9924;SDS011;5001;51.674;7.868;2022-09-13T07:19:04;5.00;;;3.63;;
9924;SDS011;5001;51.674;7.868;2022-09-13T07:21:33;10.93;;;4.10;;
9924;SDS011;5001;51.674;7.868;2022-09-13T07:24:01;7.72;;;3.25;;
9924;SDS011;5001;51.674;7.868;2022-09-13T07:26:28;10.02;;;3.65;;
9924;SDS011;5001;51.674;7.868;2022-09-13T07:28:56;8.27;;;3.10;;
9924;SDS011;5001;51.674;7.868;2022-09-13T07:31:26;8.68;;;3.78;;
9924;SDS011;5001;51.674;7.868;2022-09-13T07:34:05;4.53;;;3.22;;
9924;SDS011;5001;51.674;7.868;2022-09-13T07:36:34;8.52;;;3.10;;
9924;SDS011;5001;51.674;7.868;2022-09-13T07:39:02;5.32;;;3.33;;
9924;SDS011;5001;51.674;7.868;2022-09-13T07:41:31;6.35;;;4.18;;
9924;SDS011;5001;51.674;7.868;2022-09-13T07:43:59;7.65;;;5.15;;
9924;SDS011;5001;51.674;7.868;2022-09-13T07:46:28;7.93;;;5.68;;
9924;SDS011;5001;51.674;7.868;2022-09-13T07:48:59;8.60;;;5.63;;
9924;SDS011;5001;51.674;7.868;2022-09-13T07:51:28;7.40;;;5.85;;
9924;SDS011;5001;51.674;7.868;2022-09-13T07:53:58;5.78;;;4.60;;
9924;SDS011;5001;51.674;7.868;2022-09-13T07:56:28;8.65;;;6.10;;
9924;SDS011;5001;51.674;7.868;2022-09-13T07:59:06;10.57;;;6.85;;
9924;SDS011;5001;51.674;7.868;2022-09-13T08:01:38;6.75;;;4.22;;
9924;SDS011;5001;51.674;7.868;2022-09-13T08:04:10;6.40;;;4.50;;
9924;SDS011;5001;51.674;7.868;2022-09-13T08:06:39;8.68;;;4.60;;
9924;SDS011;5001;51.674;7.868;2022-09-13T08:09:07;8.43;;;3.78;;
9924;SDS011;5001;51.674;7.868;2022-09-13T08:11:36;5.43;;;3.78;;
9924;SDS011;5001;51.674;7.868;2022-09-13T08:14:05;9.68;;;4.50;;
9924;SDS011;5001;51.674;7.868;2022-09-13T08:16:34;7.55;;;4.50;;
9924;SDS011;5001;51.674;7.868;2022-09-13T08:19:02;6.38;;;4.35;;
9924;SDS011;5001;51.674;7.868;2022-09-13T08:21:36;6.45;;;5.35;;
9924;SDS011;5001;51.674;7.868;2022-09-13T08:24:05;7.63;;;5.18;;
9924;SDS011;5001;51.674;7.868;2022-09-13T08:26:34;6.97;;;5.03;;
9924;SDS011;5001;51.674;7.868;2022-09-13T08:29:03;8.32;;;4.93;;
9924;SDS011;5001;51.674;7.868;2022-09-13T08:31:31;18.23;;;5.35;;
9924;SDS011;5001;51.674;7.868;2022-09-13T08:34:03;10.57;;;6.03;;
9924;SDS011;5001;51.674;7.868;2022-09-13T08:36:30;8.48;;;5.45;;
9924;SDS011;5001;51.674;7.868;2022-09-13T08:38:59;11.75;;;6.40;;
9924;SDS011;5001;51.674;7.868;2022-09-13T08:49:50;10.13;;;5.75;;
9924;SDS011;5001;51.674;7.868;2022-09-13T08:55:30;7.32;;;4.05;;
9924;SDS011;5001;51.674;7.868;2022-09-13T09:01:06;8.90;;;4.07;;
9924;SDS011;5001;51.674;7.868;2022-09-13T09:06:13;6.75;;;4.15;;
9924;SDS011;5001;51.674;7.868;2022-09-13T09:11:29;10.18;;;5.25;;
9924;SDS011;5001;51.674;7.868;2022-09-13T09:14:07;12.82;;;5.85;;
9924;SDS011;5001;51.674;7.868;2022-09-13T09:16:46;6.95;;;4.93;;
9924;SDS011;5001;51.674;7.868;2022-09-13T09:19:19;10.63;;;5.63;;
9924;SDS011;5001;51.674;7.868;2022-09-13T09:21:48;11.25;;;5.53;;
9924;SDS011;5001;51.674;7.868;2022-09-13T09:24:23;5.70;;;5.10;;
9924;SDS011;5001;51.674;7.868;2022-09-13T09:26:52;7.95;;;6.10;;
9924;SDS011;5001;51.674;7.868;2022-09-13T09:29:26;9.35;;;5.90;;
9924;SDS011;5001;51.674;7.868;2022-09-13T09:38:01;8.90;;;5.22;;
9924;SDS011;5001;51.674;7.868;2022-09-13T09:40:37;7.00;;;5.30;;
9924;SDS011;5001;51.674;7.868;2022-09-13T09:43:11;8.70;;;6.05;;
9924;SDS011;5001;51.674;7.868;2022-09-13T09:46:03;9.98;;;6.60;;
9924;SDS011;5001;51.674;7.868;2022-09-13T09:48:37;9.80;;;5.68;;
9924;SDS011;5001;51.674;7.868;2022-09-13T09:51:08;15.30;;;6.38;;
9924;SDS011;5001;51.674;7.868;2022-09-13T09:53:40;11.13;;;6.00;;
9924;SDS011;5001;51.674;7.868;2022-09-13T09:56:20;9.60;;;5.50;;
9924;SDS011;5001;51.674;7.868;2022-09-13T09:58:49;9.40;;;6.30;;
9924;SDS011;5001;51.674;7.868;2022-09-13T10:01:21;8.32;;;5.63;;
9924;SDS011;5001;51.674;7.868;2022-09-13T10:06:36;12.88;;;6.38;;
9924;SDS011;5001;51.674;7.868;2022-09-13T10:09:06;11.82;;;6.68;;
9924;SDS011;5001;51.674;7.868;2022-09-13T10:11:39;9.15;;;6.40;;
9924;SDS011;5001;51.674;7.868;2022-09-13T10:14:26;8.25;;;5.72;;
9924;SDS011;5001;51.674;7.868;2022-09-13T10:17:17;7.97;;;5.68;;
9924;SDS011;5001;51.674;7.868;2022-09-13T10:19:55;8.38;;;6.15;;
9924;SDS011;5001;51.674;7.868;2022-09-13T10:22:27;10.32;;;7.13;;
9924;SDS011;5001;51.674;7.868;2022-09-13T10:27:50;10.25;;;5.40;;
9924;SDS011;5001;51.674;7.868;2022-09-13T10:33:03;10.40;;;5.53;;
9924;SDS011;5001;51.674;7.868;2022-09-13T10:35:32;8.05;;;5.85;;
9924;SDS011;5001;51.674;7.868;2022-09-13T10:37:59;7.32;;;5.35;;
9924;SDS011;5001;51.674;7.868;2022-09-13T10:43:00;8.57;;;5.68;;
9924;SDS011;5001;51.674;7.868;2022-09-13T10:45:29;10.68;;;6.22;;
9924;SDS011;5001;51.674;7.868;2022-09-13T10:47:58;10.15;;;5.35;;
9924;SDS011;5001;51.674;7.868;2022-09-13T10:50:36;9.82;;;5.75;;
9924;SDS011;5001;51.674;7.868;2022-09-13T10:53:03;9.32;;;5.63;;
9924;SDS011;5001;51.674;7.868;2022-09-13T10:55:53;9.38;;;5.97;;
9924;SDS011;5001;51.674;7.868;2022-09-13T10:58:20;10.45;;;6.00;;
9924;SDS011;5001;51.674;7.868;2022-09-13T11:06:21;9.88;;;6.80;;
9924;SDS011;5001;51.674;7.868;2022-09-13T11:09:53;8.82;;;5.72;;
9924;SDS011;5001;51.674;7.868;2022-09-13T11:15:31;7.88;;;6.10;;
9924;SDS011;5001;51.674;7.868;2022-09-13T11:18:21;8.40;;;6.20;;
9924;SDS011;5001;51.674;7.868;2022-09-13T11:21:08;10.38;;;6.30;;
9924;SDS011;5001;51.674;7.868;2022-09-13T11:43:25;8.77;;;7.05;;
9924;SDS011;5001;51.674;7.868;2022-09-13T11:57:03;11.00;;;8.25;;
9924;SDS011;5001;51.674;7.868;2022-09-13T11:59:39;9.38;;;6.80;;
9924;SDS011;5001;51.674;7.868;2022-09-13T12:02:20;11.40;;;7.43;;
9924;SDS011;5001;51.674;7.868;2022-09-13T12:04:58;8.73;;;7.40;;
9924;SDS011;5001;51.674;7.868;2022-09-13T12:08:03;8.98;;;7.75;;
9924;SDS011;5001;51.674;7.868;2022-09-13T12:10:42;9.48;;;6.88;;
9924;SDS011;5001;51.674;7.868;2022-09-13T12:13:18;9.73;;;6.43;;
9924;SDS011;5001;51.674;7.868;2022-09-13T12:15:52;15.48;;;7.60;;
9924;SDS011;5001;51.674;7.868;2022-09-13T12:18:31;10.85;;;7.88;;
9924;SDS011;5001;51.674;7.868;2022-09-13T12:21:12;10.55;;;7.85;;
9924;SDS011;5001;51.674;7.868;2022-09-13T12:23:53;9.68;;;7.90;;
9924;SDS011;5001;51.674;7.868;2022-09-13T12:26:29;11.48;;;7.80;;
9924;SDS011;5001;51.674;7.868;2022-09-13T12:29:12;9.40;;;7.05;;
9924;SDS011;5001;51.674;7.868;2022-09-13T12:31:44;8.48;;;7.43;;
9924;SDS011;5001;51.674;7.868;2022-09-13T12:34:25;8.00;;;6.93;;
9924;SDS011;5001;51.674;7.868;2022-09-13T12:37:06;7.65;;;6.55;;
9924;SDS011;5001;51.674;7.868;2022-09-13T12:56:34;9.95;;;7.03;;
9924;SDS011;5001;51.674;7.868;2022-09-13T13:02:20;10.95;;;6.60;;
9924;SDS011;5001;51.674;7.868;2022-09-13T13:04:57;7.60;;;6.80;;
9924;SDS011;5001;51.674;7.868;2022-09-13T13:07:27;8.02;;;5.93;;
9924;SDS011;5001;51.674;7.868;2022-09-13T13:09:57;7.88;;;6.63;;
9924;SDS011;5001;51.674;7.868;2022-09-13T13:12:34;7.57;;;5.47;;
9924;SDS011;5001;51.674;7.868;2022-09-13T13:17:56;9.57;;;7.03;;
9924;SDS011;5001;51.674;7.868;2022-09-13T13:20:44;9.55;;;7.22;;
9924;SDS011;5001;51.674;7.868;2022-09-13T13:26:05;7.70;;;6.20;;
9924;SDS011;5001;51.674;7.868;2022-09-13T13:39:12;8.20;;;6.20;;
9924;SDS011;5001;51.674;7.868;2022-09-13T14:02:48;5.03;;;4.20;;
9924;SDS011;5001;51.674;7.868;2022-09-13T14:21:35;7.47;;;4.80;;
9924;SDS011;5001;51.674;7.868;2022-09-13T14:24:15;6.03;;;4.60;;
9924;SDS011;5001;51.674;7.868;2022-09-13T14:26:50;7.97;;;5.97;;
9924;SDS011;5001;51.674;7.868;2022-09-13T14:29:20;7.00;;;4.88;;
9924;SDS011;5001;51.674;7.868;2022-09-13T14:31:51;5.18;;;4.68;;
9924;SDS011;5001;51.674;7.868;2022-09-13T14:34:27;7.80;;;5.38;;
9924;SDS011;5001;51.674;7.868;2022-09-13T14:36:56;8.32;;;5.07;;
9924;SDS011;5001;51.674;7.868;2022-09-13T14:39:26;6.13;;;4.43;;
9924;SDS011;5001;51.674;7.868;2022-09-13T14:41:57;7.13;;;4.53;;
9924;SDS011;5001;51.674;7.868;2022-09-13T14:44:27;4.80;;;4.20;;
9924;SDS011;5001;51.674;7.868;2022-09-13T14:47:39;6.22;;;4.38;;
9924;SDS011;5001;51.674;7.868;2022-09-13T14:49:54;5.85;;;4.22;;
9924;SDS011;5001;51.674;7.868;2022-09-13T14:52:52;6.95;;;5.60;;
9924;SDS011;5001;51.674;7.868;2022-09-13T14:55:25;6.13;;;5.10;;
9924;SDS011;5001;51.674;7.868;2022-09-13T14:57:59;7.25;;;4.35;;
9924;SDS011;5001;51.674;7.868;2022-09-13T15:00:44;6.22;;;5.32;;
9924;SDS011;5001;51.674;7.868;2022-09-13T15:03:17;6.22;;;5.40;;
9924;SDS011;5001;51.674;7.868;2022-09-13T15:05:55;6.82;;;5.38;;
9924;SDS011;5001;51.674;7.868;2022-09-13T15:11:00;8.38;;;5.63;;
9924;SDS011;5001;51.674;7.868;2022-09-13T15:13:29;6.57;;;5.57;;
9924;SDS011;5001;51.674;7.868;2022-09-13T15:15:56;10.45;;;6.03;;
9924;SDS011;5001;51.674;7.868;2022-09-13T15:18:30;6.82;;;5.65;;
9924;SDS011;5001;51.674;7.868;2022-09-13T15:21:05;6.28;;;5.32;;
9924;SDS011;5001;51.674;7.868;2022-09-13T15:23:47;6.72;;;4.85;;
9924;SDS011;5001;51.674;7.868;2022-09-13T15:26:20;6.25;;;5.65;;
9924;SDS011;5001;51.674;7.868;2022-09-13T15:28:52;13.38;;;5.80;;
9924;SDS011;5001;51.674;7.868;2022-09-13T15:36:42;10.48;;;5.68;;
9924;SDS011;5001;51.674;7.868;2022-09-13T15:39:14;14.75;;;5.85;;
9924;SDS011;5001;51.674;7.868;2022-09-13T15:44:23;10.68;;;5.75;;
9924;SDS011;5001;51.674;7.868;2022-09-13T15:46:52;7.15;;;4.82;;
9924;SDS011;5001;51.674;7.868;2022-09-13T15:49:22;8.65;;;5.28;;
9924;SDS011;5001;51.674;7.868;2022-09-13T15:51:56;10.38;;;5.38;;
9924;SDS011;5001;51.674;7.868;2022-09-13T15:54:26;8.68;;;4.97;;
9924;SDS011;5001;51.674;7.868;2022-09-13T15:57:07;6.43;;;4.32;;
9924;SDS011;5001;51.674;7.868;2022-09-13T15:59:39;4.72;;;4.05;;
9924;SDS011;5001;51.674;7.868;2022-09-13T16:02:26;6.05;;;4.40;;
9924;SDS011;5001;51.674;7.868;2022-09-13T16:04:56;7.30;;;4.40;;
9924;SDS011;5001;51.674;7.868;2022-09-13T16:07:23;6.40;;;4.10;;
9924;SDS011;5001;51.674;7.868;2022-09-13T16:09:51;6.10;;;4.28;;
9924;SDS011;5001;51.674;7.868;2022-09-13T16:12:18;7.10;;;4.28;;
9924;SDS011;5001;51.674;7.868;2022-09-13T16:14:48;5.22;;;4.57;;
9924;SDS011;5001;51.674;7.868;2022-09-13T16:17:18;6.47;;;4.07;;
9924;SDS011;5001;51.674;7.868;2022-09-13T16:19:47;9.00;;;5.13;;
9924;SDS011;5001;51.674;7.868;2022-09-13T16:22:14;6.75;;;5.22;;
9924;SDS011;5001;51.674;7.868;2022-09-13T16:24:41;7.07;;;5.28;;
9924;SDS011;5001;51.674;7.868;2022-09-13T16:27:09;7.82;;;4.72;;
9924;SDS011;5001;51.674;7.868;2022-09-13T16:29:38;8.32;;;4.18;;
9924;SDS011;5001;51.674;7.868;2022-09-13T16:32:05;7.35;;;3.90;;
9924;SDS011;5001;51.674;7.868;2022-09-13T16:34:32;5.55;;;3.80;;
9924;SDS011;5001;51.674;7.868;2022-09-13T16:36:59;4.90;;;3.40;;
9924;SDS011;5001;51.674;7.868;2022-09-13T16:39:26;6.63;;;3.55;;
9924;SDS011;5001;51.674;7.868;2022-09-13T16:41:54;5.47;;;3.85;;
9924;SDS011;5001;51.674;7.868;2022-09-13T16:44:21;4.75;;;3.92;;
9924;SDS011;5001;51.674;7.868;2022-09-13T16:46:48;5.97;;;3.58;;
9924;SDS011;5001;51.674;7.868;2022-09-13T16:49:15;5.22;;;3.78;;
9924;SDS011;5001;51.674;7.868;2022-09-13T16:51:42;8.93;;;4.70;;
9924;SDS011;5001;51.674;7.868;2022-09-13T16:54:09;5.90;;;4.47;;
9924;SDS011;5001;51.674;7.868;2022-09-13T16:56:36;8.57;;;3.83;;
9924;SDS011;5001;51.674;7.868;2022-09-13T16:59:03;5.25;;;3.90;;
9924;SDS011;5001;51.674;7.868;2022-09-13T17:01:30;6.30;;;3.00;;
9924;SDS011;5001;51.674;7.868;2022-09-13T17:03:57;7.05;;;3.35;;
9924;SDS011;5001;51.674;7.868;2022-09-13T17:06:25;7.93;;;3.13;;
9924;SDS011;5001;51.674;7.868;2022-09-13T17:08:56;6.95;;;3.53;;
9924;SDS011;5001;51.674;7.868;2022-09-13T17:11:29;4.75;;;3.05;;
9924;SDS011;5001;51.674;7.868;2022-09-13T17:13:58;4.65;;;3.53;;
9924;SDS011;5001;51.674;7.868;2022-09-13T17:17:00;4.57;;;3.83;;
9924;SDS011;5001;51.674;7.868;2022-09-13T17:19:28;6.05;;;3.08;;
9924;SDS011;5001;51.674;7.868;2022-09-13T17:21:59;4.30;;;3.17;;
9924;SDS011;5001;51.674;7.868;2022-09-13T17:24:28;3.72;;;2.95;;
9924;SDS011;5001;51.674;7.868;2022-09-13T17:26:57;6.38;;;2.60;;
9924;SDS011;5001;51.674;7.868;2022-09-13T17:29:24;6.10;;;3.10;;
9924;SDS011;5001;51.674;7.868;2022-09-13T17:31:56;6.68;;;3.70;;
9924;SDS011;5001;51.674;7.868;2022-09-13T17:34:23;6.65;;;2.67;;
9924;SDS011;5001;51.674;7.868;2022-09-13T17:36:51;4.00;;;2.88;;
9924;SDS011;5001;51.674;7.868;2022-09-13T17:39:18;5.63;;;3.17;;
9924;SDS011;5001;51.674;7.868;2022-09-13T17:41:45;8.55;;;3.55;;
9924;SDS011;5001;51.674;7.868;2022-09-13T17:44:14;7.72;;;3.28;;
9924;SDS011;5001;51.674;7.868;2022-09-13T17:46:41;6.15;;;3.20;;
9924;SDS011;5001;51.674;7.868;2022-09-13T17:49:08;4.95;;;3.05;;
9924;SDS011;5001;51.674;7.868;2022-09-13T17:51:35;6.30;;;2.53;;
9924;SDS011;5001;51.674;7.868;2022-09-13T17:54:03;4.63;;;2.92;;
9924;SDS011;5001;51.674;7.868;2022-09-13T17:56:33;7.75;;;3.10;;
9924;SDS011;5001;51.674;7.868;2022-09-13T17:59:10;4.45;;;3.00;;
9924;SDS011;5001;51.674;7.868;2022-09-13T18:01:39;7.82;;;2.80;;
9924;SDS011;5001;51.674;7.868;2022-09-13T18:04:08;3.13;;;2.75;;
9924;SDS011;5001;51.674;7.868;2022-09-13T18:06:36;6.43;;;2.80;;
9924;SDS011;5001;51.674;7.868;2022-09-13T18:09:08;4.85;;;2.58;;
9924;SDS011;5001;51.674;7.868;2022-09-13T18:11:36;3.53;;;2.40;;
9924;SDS011;5001;51.674;7.868;2022-09-13T18:14:04;5.38;;;3.40;;
9924;SDS011;5001;51.674;7.868;2022-09-13T18:16:31;3.42;;;3.13;;
9924;SDS011;5001;51.674;7.868;2022-09-13T18:18:59;5.25;;;3.25;;
9924;SDS011;5001;51.674;7.868;2022-09-13T18:21:26;7.75;;;3.30;;
9924;SDS011;5001;51.674;7.868;2022-09-13T18:23:54;3.63;;;2.97;;
9924;SDS011;5001;51.674;7.868;2022-09-13T18:26:24;4.63;;;3.65;;
9924;SDS011;5001;51.674;7.868;2022-09-13T18:28:59;9.23;;;4.03;;
9924;SDS011;5001;51.674;7.868;2022-09-13T18:31:28;7.78;;;4.10;;
9924;SDS011;5001;51.674;7.868;2022-09-13T18:33:58;7.03;;;5.45;;
9924;SDS011;5001;51.674;7.868;2022-09-13T18:36:27;6.15;;;5.55;;
9924;SDS011;5001;51.674;7.868;2022-09-13T18:38:55;9.30;;;6.63;;
9924;SDS011;5001;51.674;7.868;2022-09-13T18:41:23;6.00;;;4.80;;
9924;SDS011;5001;51.674;7.868;2022-09-13T18:43:52;5.53;;;3.97;;
9924;SDS011;5001;51.674;7.868;2022-09-13T18:46:22;7.90;;;4.35;;
9924;SDS011;5001;51.674;7.868;2022-09-13T18:48:51;10.82;;;4.80;;
9924;SDS011;5001;51.674;7.868;2022-09-13T18:51:36;6.40;;;5.05;;
9924;SDS011;5001;51.674;7.868;2022-09-13T18:54:09;5.78;;;4.55;;
9924;SDS011;5001;51.674;7.868;2022-09-13T18:56:40;7.68;;;4.78;;
9924;SDS011;5001;51.674;7.868;2022-09-13T18:59:08;6.40;;;4.47;;
9924;SDS011;5001;51.674;7.868;2022-09-13T19:01:37;5.32;;;3.67;;
9924;SDS011;5001;51.674;7.868;2022-09-13T19:04:10;5.70;;;3.38;;
9924;SDS011;5001;51.674;7.868;2022-09-13T19:06:45;5.03;;;3.53;;